Search for airport 
image banner adimage banner adimage banner ad
image banner ad

7PS3 - Susquehanna High School

Located in Susquehanna, United States

ICAO - 7PS3, IATA -

Data provided by Airmate  

General information

Coordinates: N41°56'59" W75°35'20"
Elevation is 1040 feet MSL.
Magnetic variation is -13° East
View others Airports in Pennsylvania

Operational data

Special qualification required
Current time UTC:
Current local time:
METAR: KBGM 071153Z 00000KT 10SM CLR 04/M01 A2992 RMK AO2 SLP141 T00441006 10056 20006 53001
TAF: KBGM 071120Z 0712/0812 10004KT P6SM FEW150 FM071700 16005KT P6SM BKN060 FM072000 20005KT 5SM -SHRA BR OVC040 FM080100 VRB03KT 3SM -SHRA BR OVC015 FM080300 VRB03KT 2SM -SHRA BR OVC009 FM080600 VRB03KT 2SM -SHRA BR OVC005
View NOTAMs / SUP AIP / TFR affecting this airport [VIEW]
Communications frequencies: [VIEW]

Runways:

Airport contact information

Address: Susquehanna United States

Satellite view of 7PS3